Details From ENBR - Bergen Lufthavn Flesland
To ENSO - Sorstokken
Flight Number -
Tags Routegen Generated
Created
Modified
Stats Distance 31 nm / 57 km
Max Altitude 100 ft / 30 m
Waypoints 5
Social Downloads 5
Likes 0
Share VATSIM

Download

Looking for another format? Having issues loading an existing format? Contact us
Advertisement - Login to hide

Notes

Departing runway 17 ENBR. Arriving runway 14 ENSO.

Route

ENBR +60.21_+005.25 +60.06_+005.21 +59.91_+005.17 ENSO

ID Type Via Altitude Latitude Longitude Leg Dist Tot Dist Heading (true) Name
O ENBR APT - 0 ft / 0 m 60.28015˚ 5.22258˚ - 0 nm - -
+60.21_+005.25 DME - 100 ft / 30 m 60.20876˚ 5.24645˚ 4 nm 4 nm 171° / 171° -
+60.06_+005.21 DME - 100 ft / 30 m 60.06165˚ 5.20742˚ 8 nm 13 nm 188° / 188° -
+59.91_+005.17 DME - 100 ft / 30 m 59.91454˚ 5.16840˚ 8 nm 22 nm 188° / 188° -
O ENSO APT - 0 ft / 0 m 59.79633˚ 5.33469˚ 8 nm 30 nm 145° / 145° -

Altitude Profile

Advertisement - Login to hide

ENBR

Details ICAO ENBR (BGO)
Name Bergen Lufthavn Flesland
Region Norway
Timezone Europe/Oslo (UTC+1.0)
Stats Elevation 165 ft / 50 m (AMSL)
Location 60.293388° 5.218140°
Runways 1
Magnetic Variation 0.839° E

METAR

ENBR 110350Z 13008KT CAVOK 00/M06 Q0986 RMK WIND 1200FT 14017KT

Decode

TAF

TAF ENBR 102300Z 1100/1124 14008KT 9999 FEW015 BKN050

Decode

Departure Runways

ID Width Length Bearing (true) Bearing (mag) Surface Threshold Offset Overrun Length
17 148 ft / 45 m 9,793 ft / 2,985 m 170.56° 169.72° Asphalt 886 ft / 270 m 0 ft / 0 m
35 148 ft / 45 m 9,793 ft / 2,985 m 350.57° 349.73° Asphalt 886 ft / 270 m 0 ft / 0 m

ENSO

Details ICAO ENSO (SRP)
Name Stord Sorstokken
Region Norway
Timezone Europe/Oslo (UTC+1.0)
Stats Elevation 161 ft / 49 m (AMSL)
Location 59.791925° 5.340850°
Runways 1
Magnetic Variation 0.919° E

METAR

ENSO 110420Z 11009KT 9999 FEW030 M00/M05 Q0987

Decode

TAF

Not found

Destination Runways

ID Width Length Bearing (true) Bearing (mag) Surface Threshold Offset Overrun Length
14 98 ft / 30 m 4,779 ft / 1,457 m 144.82° 143.90° Asphalt 230 ft / 70 m 0 ft / 0 m
32 98 ft / 30 m 4,779 ft / 1,457 m 324.84° 323.92° Asphalt 230 ft / 70 m 0 ft / 0 m

Approach Navaids

Runway Type Ident Frequency Range Bearing (true) Bearing (mag) Slope Elevation
14 Localiser SRD 110.10 MHz 18 nm / 33 km 144.99° 144.07° - 151 ft / 46 m (AMSL)

Popular Alternatives